sensor_id;sensor_type;location;lat;lon;timestamp;pressure;altitude;pressure_sealevel;temperature;humidity
36010;BME280;22076;52.182;5.404;2024-02-23T00:01:41;100468.06;;;6.16;100.00
36010;BME280;22076;52.182;5.404;2024-02-23T00:04:07;100478.44;;;6.16;100.00
36010;BME280;22076;52.182;5.404;2024-02-23T00:06:34;100489.75;;;6.15;100.00
36010;BME280;22076;52.182;5.404;2024-02-23T00:09:01;100485.78;;;6.06;100.00
36010;BME280;22076;52.182;5.404;2024-02-23T00:11:29;100487.34;;;6.10;100.00
36010;BME280;22076;52.182;5.404;2024-02-23T00:13:55;100487.25;;;6.12;100.00
36010;BME280;22076;52.182;5.404;2024-02-23T00:16:22;100501.69;;;6.18;100.00
36010;BME280;22076;52.182;5.404;2024-02-23T00:18:48;100513.59;;;6.23;100.00
36010;BME280;22076;52.182;5.404;2024-02-23T00:21:15;100514.16;;;6.30;100.00
36010;BME280;22076;52.182;5.404;2024-02-23T00:23:41;100515.91;;;6.30;100.00
36010;BME280;22076;52.182;5.404;2024-02-23T00:26:08;100512.53;;;6.27;100.00
36010;BME280;22076;52.182;5.404;2024-02-23T00:28:36;100516.75;;;6.30;100.00
36010;BME280;22076;52.182;5.404;2024-02-23T00:31:03;100520.13;;;6.32;100.00
36010;BME280;22076;52.182;5.404;2024-02-23T00:33:29;100516.91;;;6.27;100.00
36010;BME280;22076;52.182;5.404;2024-02-23T00:35:56;100523.72;;;6.30;100.00
36010;BME280;22076;52.182;5.404;2024-02-23T00:38:22;100522.50;;;6.37;100.00
36010;BME280;22076;52.182;5.404;2024-02-23T00:40:49;100533.53;;;6.42;100.00
36010;BME280;22076;52.182;5.404;2024-02-23T00:43:15;100543.16;;;6.40;100.00
36010;BME280;22076;52.182;5.404;2024-02-23T00:45:43;100550.88;;;6.41;100.00
36010;BME280;22076;52.182;5.404;2024-02-23T00:48:09;100547.25;;;6.25;100.00
36010;BME280;22076;52.182;5.404;2024-02-23T00:50:38;100552.75;;;6.38;100.00
36010;BME280;22076;52.182;5.404;2024-02-23T00:53:04;100561.34;;;6.38;100.00
36010;BME280;22076;52.182;5.404;2024-02-23T00:55:31;100568.50;;;6.33;100.00
36010;BME280;22076;52.182;5.404;2024-02-23T00:57:58;100571.63;;;6.41;100.00
36010;BME280;22076;52.182;5.404;2024-02-23T01:00:25;100575.13;;;6.40;100.00
36010;BME280;22076;52.182;5.404;2024-02-23T01:02:53;100572.19;;;6.48;100.00
36010;BME280;22076;52.182;5.404;2024-02-23T01:05:19;100559.38;;;6.45;100.00
36010;BME280;22076;52.182;5.404;2024-02-23T01:07:46;100568.25;;;6.39;100.00
36010;BME280;22076;52.182;5.404;2024-02-23T01:10:13;100581.44;;;6.35;100.00
36010;BME280;22076;52.182;5.404;2024-02-23T01:12:40;100569.53;;;6.29;100.00
36010;BME280;22076;52.182;5.404;2024-02-23T01:15:06;100577.53;;;6.24;100.00
36010;BME280;22076;52.182;5.404;2024-02-23T01:17:33;100580.06;;;6.26;100.00
36010;BME280;22076;52.182;5.404;2024-02-23T01:20:01;100590.28;;;6.29;100.00
36010;BME280;22076;52.182;5.404;2024-02-23T01:22:27;100574.06;;;6.03;100.00
36010;BME280;22076;52.182;5.404;2024-02-23T01:24:54;100567.16;;;6.04;100.00
36010;BME280;22076;52.182;5.404;2024-02-23T01:27:20;100576.47;;;6.08;100.00
36010;BME280;22076;52.182;5.404;2024-02-23T01:29:47;100593.91;;;6.04;100.00
36010;BME280;22076;52.182;5.404;2024-02-23T01:32:14;100582.72;;;5.82;100.00
36010;BME280;22076;52.182;5.404;2024-02-23T01:34:40;100594.06;;;5.79;100.00
36010;BME280;22076;52.182;5.404;2024-02-23T01:37:08;100595.84;;;5.77;100.00
36010;BME280;22076;52.182;5.404;2024-02-23T01:39:35;100613.16;;;5.76;100.00
36010;BME280;22076;52.182;5.404;2024-02-23T01:42:01;100601.09;;;5.75;100.00
36010;BME280;22076;52.182;5.404;2024-02-23T01:44:28;100588.44;;;5.68;100.00
36010;BME280;22076;52.182;5.404;2024-02-23T01:46:54;100581.81;;;5.60;100.00
36010;BME280;22076;52.182;5.404;2024-02-23T01:49:21;100590.13;;;5.69;100.00
36010;BME280;22076;52.182;5.404;2024-02-23T01:51:54;100608.09;;;5.73;100.00
36010;BME280;22076;52.182;5.404;2024-02-23T01:54:23;100621.59;;;5.82;100.00
36010;BME280;22076;52.182;5.404;2024-02-23T01:56:50;100607.44;;;5.68;100.00
36010;BME280;22076;52.182;5.404;2024-02-23T01:59:17;100627.53;;;5.85;100.00
36010;BME280;22076;52.182;5.404;2024-02-23T02:01:45;100624.72;;;5.90;100.00
36010;BME280;22076;52.182;5.404;2024-02-23T02:04:12;100625.56;;;5.90;100.00
36010;BME280;22076;52.182;5.404;2024-02-23T02:06:39;100636.56;;;5.97;100.00
36010;BME280;22076;52.182;5.404;2024-02-23T02:09:06;100646.38;;;5.89;100.00
36010;BME280;22076;52.182;5.404;2024-02-23T02:11:34;100660.72;;;5.98;100.00
36010;BME280;22076;52.182;5.404;2024-02-23T02:14:00;100657.19;;;6.00;100.00
36010;BME280;22076;52.182;5.404;2024-02-23T02:16:27;100663.94;;;6.04;100.00
36010;BME280;22076;52.182;5.404;2024-02-23T02:18:53;100660.31;;;6.08;100.00
36010;BME280;22076;52.182;5.404;2024-02-23T02:21:20;100644.28;;;5.99;100.00
36010;BME280;22076;52.182;5.404;2024-02-23T02:23:50;100657.84;;;6.05;100.00
36010;BME280;22076;52.182;5.404;2024-02-23T02:26:16;100650.88;;;6.07;100.00
36010;BME280;22076;52.182;5.404;2024-02-23T02:28:45;100646.59;;;6.06;100.00
36010;BME280;22076;52.182;5.404;2024-02-23T02:31:12;100638.50;;;5.92;100.00
36010;BME280;22076;52.182;5.404;2024-02-23T02:33:39;100656.44;;;5.96;100.00
36010;BME280;22076;52.182;5.404;2024-02-23T02:36:06;100659.47;;;5.86;100.00
36010;BME280;22076;52.182;5.404;2024-02-23T02:38:32;100657.97;;;5.80;100.00
36010;BME280;22076;52.182;5.404;2024-02-23T02:40:59;100665.38;;;5.89;100.00
36010;BME280;22076;52.182;5.404;2024-02-23T02:43:26;100659.41;;;5.87;100.00
36010;BME280;22076;52.182;5.404;2024-02-23T02:45:54;100654.34;;;5.84;100.00
36010;BME280;22076;52.182;5.404;2024-02-23T02:48:20;100660.38;;;5.85;100.00
36010;BME280;22076;52.182;5.404;2024-02-23T02:50:47;100655.38;;;5.80;100.00
36010;BME280;22076;52.182;5.404;2024-02-23T02:53:15;100657.31;;;5.75;100.00
36010;BME280;22076;52.182;5.404;2024-02-23T02:55:42;100657.25;;;5.76;100.00
36010;BME280;22076;52.182;5.404;2024-02-23T02:58:09;100651.47;;;5.68;100.00
36010;BME280;22076;52.182;5.404;2024-02-23T03:00:35;100663.56;;;5.69;100.00
36010;BME280;22076;52.182;5.404;2024-02-23T03:03:03;100652.44;;;5.66;100.00
36010;BME280;22076;52.182;5.404;2024-02-23T03:05:30;100657.75;;;5.62;100.00
36010;BME280;22076;52.182;5.404;2024-02-23T03:07:56;100659.56;;;5.60;100.00
36010;BME280;22076;52.182;5.404;2024-02-23T03:10:23;100656.06;;;5.61;100.00
36010;BME280;22076;52.182;5.404;2024-02-23T03:12:49;100669.88;;;5.62;100.00
36010;BME280;22076;52.182;5.404;2024-02-23T03:15:16;100676.06;;;5.58;100.00
36010;BME280;22076;52.182;5.404;2024-02-23T03:17:42;100676.81;;;5.61;100.00
36010;BME280;22076;52.182;5.404;2024-02-23T03:20:11;100654.13;;;5.44;100.00
36010;BME280;22076;52.182;5.404;2024-02-23T03:22:37;100670.19;;;5.54;100.00
36010;BME280;22076;52.182;5.404;2024-02-23T03:25:05;100668.34;;;5.56;100.00
36010;BME280;22076;52.182;5.404;2024-02-23T03:27:35;100653.06;;;5.50;100.00
36010;BME280;22076;52.182;5.404;2024-02-23T03:30:03;100658.19;;;5.52;100.00
36010;BME280;22076;52.182;5.404;2024-02-23T03:32:30;100666.78;;;5.52;100.00
36010;BME280;22076;52.182;5.404;2024-02-23T03:35:01;100668.66;;;5.49;100.00
36010;BME280;22076;52.182;5.404;2024-02-23T03:37:30;100666.97;;;5.48;100.00
36010;BME280;22076;52.182;5.404;2024-02-23T03:39:56;100673.00;;;5.48;100.00
36010;BME280;22076;52.182;5.404;2024-02-23T03:42:23;100671.44;;;5.44;100.00
36010;BME280;22076;52.182;5.404;2024-02-23T03:44:49;100659.78;;;5.32;100.00
36010;BME280;22076;52.182;5.404;2024-02-23T03:47:16;100674.91;;;5.43;100.00
36010;BME280;22076;52.182;5.404;2024-02-23T03:49:42;100664.84;;;5.35;100.00
36010;BME280;22076;52.182;5.404;2024-02-23T03:52:09;100666.53;;;5.36;100.00
36010;BME280;22076;52.182;5.404;2024-02-23T03:54:37;100671.50;;;5.42;100.00
36010;BME280;22076;52.182;5.404;2024-02-23T03:57:03;100645.25;;;5.28;100.00
36010;BME280;22076;52.182;5.404;2024-02-23T03:59:30;100657.34;;;5.27;100.00
36010;BME280;22076;52.182;5.404;2024-02-23T04:01:57;100649.09;;;5.18;100.00
36010;BME280;22076;52.182;5.404;2024-02-23T04:04:23;100648.00;;;5.23;100.00
36010;BME280;22076;52.182;5.404;2024-02-23T04:06:50;100648.75;;;5.27;100.00
36010;BME280;22076;52.182;5.404;2024-02-23T04:09:16;100651.50;;;5.22;100.00
36010;BME280;22076;52.182;5.404;2024-02-23T04:11:47;100650.44;;;5.28;100.00
36010;BME280;22076;52.182;5.404;2024-02-23T04:14:13;100653.03;;;5.28;100.00
36010;BME280;22076;52.182;5.404;2024-02-23T04:16:40;100650.53;;;5.25;100.00
36010;BME280;22076;52.182;5.404;2024-02-23T04:19:06;100653.34;;;5.19;100.00
36010;BME280;22076;52.182;5.404;2024-02-23T04:21:33;100634.72;;;5.09;100.00
36010;BME280;22076;52.182;5.404;2024-02-23T04:23:59;100650.94;;;5.14;100.00
36010;BME280;22076;52.182;5.404;2024-02-23T04:26:26;100651.78;;;5.15;100.00
36010;BME280;22076;52.182;5.404;2024-02-23T04:28:54;100648.44;;;5.11;100.00
36010;BME280;22076;52.182;5.404;2024-02-23T04:31:20;100649.31;;;5.11;100.00
36010;BME280;22076;52.182;5.404;2024-02-23T04:33:47;100650.88;;;5.16;100.00
36010;BME280;22076;52.182;5.404;2024-02-23T04:36:13;100656.84;;;5.18;100.00
36010;BME280;22076;52.182;5.404;2024-02-23T04:38:41;100656.13;;;5.14;100.00
36010;BME280;22076;52.182;5.404;2024-02-23T04:41:07;100662.19;;;5.13;100.00
36010;BME280;22076;52.182;5.404;2024-02-23T04:43:34;100654.41;;;5.13;100.00
36010;BME280;22076;52.182;5.404;2024-02-23T04:46:02;100669.75;;;5.19;100.00
36010;BME280;22076;52.182;5.404;2024-02-23T04:48:29;100675.97;;;5.13;100.00
36010;BME280;22076;52.182;5.404;2024-02-23T04:50:56;100662.41;;;5.07;100.00
36010;BME280;22076;52.182;5.404;2024-02-23T04:53:22;100666.84;;;5.03;100.00
36010;BME280;22076;52.182;5.404;2024-02-23T04:55:49;100670.22;;;5.05;100.00
36010;BME280;22076;52.182;5.404;2024-02-23T04:58:15;100658.88;;;5.09;100.00
36010;BME280;22076;52.182;5.404;2024-02-23T05:00:42;100670.19;;;5.07;100.00
36010;BME280;22076;52.182;5.404;2024-02-23T05:03:10;100657.34;;;5.04;100.00
36010;BME280;22076;52.182;5.404;2024-02-23T05:05:36;100672.94;;;5.02;100.00
36010;BME280;22076;52.182;5.404;2024-02-23T05:08:03;100672.56;;;5.13;100.00
36010;BME280;22076;52.182;5.404;2024-02-23T05:10:30;100670.09;;;5.10;100.00
36010;BME280;22076;52.182;5.404;2024-02-23T05:12:56;100677.00;;;5.09;100.00
36010;BME280;22076;52.182;5.404;2024-02-23T05:15:23;100681.91;;;5.17;100.00
36010;BME280;22076;52.182;5.404;2024-02-23T05:17:49;100668.19;;;5.13;100.00
36010;BME280;22076;52.182;5.404;2024-02-23T05:20:17;100680.19;;;5.16;100.00
36010;BME280;22076;52.182;5.404;2024-02-23T05:22:44;100670.03;;;5.11;100.00
36010;BME280;22076;52.182;5.404;2024-02-23T05:25:09;100669.28;;;5.08;100.00
36010;BME280;22076;52.182;5.404;2024-02-23T05:27:36;100681.06;;;5.17;100.00
36010;BME280;22076;52.182;5.404;2024-02-23T05:30:04;100683.72;;;5.15;100.00
36010;BME280;22076;52.182;5.404;2024-02-23T05:32:32;100675.34;;;5.07;100.00
36010;BME280;22076;52.182;5.404;2024-02-23T05:34:58;100677.78;;;5.11;100.00
36010;BME280;22076;52.182;5.404;2024-02-23T05:37:26;100689.38;;;5.25;100.00
36010;BME280;22076;52.182;5.404;2024-02-23T05:39:53;100672.69;;;5.10;100.00
36010;BME280;22076;52.182;5.404;2024-02-23T05:42:20;100696.53;;;5.18;100.00
36010;BME280;22076;52.182;5.404;2024-02-23T05:44:46;100688.81;;;5.17;100.00
36010;BME280;22076;52.182;5.404;2024-02-23T05:47:13;100687.75;;;5.22;100.00
36010;BME280;22076;52.182;5.404;2024-02-23T05:49:40;100693.00;;;5.21;100.00
36010;BME280;22076;52.182;5.404;2024-02-23T05:52:07;100698.97;;;5.23;100.00
36010;BME280;22076;52.182;5.404;2024-02-23T05:54:35;100697.28;;;5.22;100.00
36010;BME280;22076;52.182;5.404;2024-02-23T05:57:01;100688.78;;;5.18;100.00
36010;BME280;22076;52.182;5.404;2024-02-23T05:59:28;100671.13;;;5.04;100.00
36010;BME280;22076;52.182;5.404;2024-02-23T06:01:55;100681.81;;;5.19;100.00
36010;BME280;22076;52.182;5.404;2024-02-23T06:04:22;100697.22;;;5.23;100.00
36010;BME280;22076;52.182;5.404;2024-02-23T06:06:49;100678.47;;;5.17;100.00
36010;BME280;22076;52.182;5.404;2024-02-23T06:09:15;100668.44;;;5.07;100.00
36010;BME280;22076;52.182;5.404;2024-02-23T06:11:43;100693.66;;;5.26;100.00
36010;BME280;22076;52.182;5.404;2024-02-23T06:14:10;100691.16;;;5.24;100.00
36010;BME280;22076;52.182;5.404;2024-02-23T06:16:36;100684.31;;;5.22;100.00
36010;BME280;22076;52.182;5.404;2024-02-23T06:19:03;100686.91;;;5.22;100.00
36010;BME280;22076;52.182;5.404;2024-02-23T06:21:29;100691.22;;;5.21;100.00
36010;BME280;22076;52.182;5.404;2024-02-23T06:23:57;100684.66;;;5.12;100.00
36010;BME280;22076;52.182;5.404;2024-02-23T06:26:23;100689.66;;;5.17;100.00
36010;BME280;22076;52.182;5.404;2024-02-23T06:28:51;100695.31;;;5.28;100.00
36010;BME280;22076;52.182;5.404;2024-02-23T06:31:18;100676.72;;;5.17;100.00
36010;BME280;22076;52.182;5.404;2024-02-23T06:33:44;100696.19;;;5.27;100.00
36010;BME280;22076;52.182;5.404;2024-02-23T06:36:14;100688.66;;;5.21;100.00
36010;BME280;22076;52.182;5.404;2024-02-23T06:38:41;100689.38;;;5.25;100.00
36010;BME280;22076;52.182;5.404;2024-02-23T06:41:07;100691.28;;;5.20;100.00
36010;BME280;22076;52.182;5.404;2024-02-23T06:43:37;100667.44;;;5.11;100.00
36010;BME280;22076;52.182;5.404;2024-02-23T06:46:06;100684.41;;;5.19;100.00
36010;BME280;22076;52.182;5.404;2024-02-23T06:48:33;100690.47;;;5.19;100.00
36010;BME280;22076;52.182;5.404;2024-02-23T06:51:01;100678.13;;;5.26;100.00
36010;BME280;22076;52.182;5.404;2024-02-23T06:53:28;100682.28;;;5.30;100.00
36010;BME280;22076;52.182;5.404;2024-02-23T06:55:55;100665.31;;;5.23;100.00
36010;BME280;22076;52.182;5.404;2024-02-23T06:58:21;100655.66;;;5.26;100.00
36010;BME280;22076;52.182;5.404;2024-02-23T07:00:48;100653.03;;;5.28;100.00
36010;BME280;22076;52.182;5.404;2024-02-23T07:03:16;100652.34;;;5.23;100.00
36010;BME280;22076;52.182;5.404;2024-02-23T07:05:43;100647.06;;;5.26;100.00
36010;BME280;22076;52.182;5.404;2024-02-23T07:08:10;100647.78;;;5.29;100.00
36010;BME280;22076;52.182;5.404;2024-02-23T07:10:37;100641.69;;;5.30;100.00
36010;BME280;22076;52.182;5.404;2024-02-23T07:13:03;100647.66;;;5.33;100.00
36010;BME280;22076;52.182;5.404;2024-02-23T07:15:30;100630.72;;;5.24;100.00
36010;BME280;22076;52.182;5.404;2024-02-23T07:17:58;100624.47;;;5.29;100.00
36010;BME280;22076;52.182;5.404;2024-02-23T07:20:26;100620.00;;;5.33;100.00
36010;BME280;22076;52.182;5.404;2024-02-23T07:22:52;100618.56;;;5.26;100.00
36010;BME280;22076;52.182;5.404;2024-02-23T07:25:19;100610.59;;;5.30;100.00
36010;BME280;22076;52.182;5.404;2024-02-23T07:27:46;100614.72;;;5.36;100.00
36010;BME280;22076;52.182;5.404;2024-02-23T07:30:14;100614.72;;;5.36;100.00
36010;BME280;22076;52.182;5.404;2024-02-23T07:32:41;100594.34;;;5.27;100.00
36010;BME280;22076;52.182;5.404;2024-02-23T07:35:09;100601.69;;;5.38;100.00
36010;BME280;22076;52.182;5.404;2024-02-23T07:37:37;100592.66;;;5.48;100.00
36010;BME280;22076;52.182;5.404;2024-02-23T07:40:05;100587.41;;;5.50;100.00
36010;BME280;22076;52.182;5.404;2024-02-23T07:42:32;100579.72;;;5.48;100.00
36010;BME280;22076;52.182;5.404;2024-02-23T07:45:01;100572.59;;;5.53;100.00
36010;BME280;22076;52.182;5.404;2024-02-23T07:47:29;100566.38;;;5.57;100.00
36010;BME280;22076;52.182;5.404;2024-02-23T07:49:56;100559.72;;;5.52;100.00
36010;BME280;22076;52.182;5.404;2024-02-23T07:52:22;100549.22;;;5.55;100.00
36010;BME280;22076;52.182;5.404;2024-02-23T07:54:51;100543.00;;;5.59;100.00
36010;BME280;22076;52.182;5.404;2024-02-23T07:57:18;100536.25;;;5.55;100.00
36010;BME280;22076;52.182;5.404;2024-02-23T07:59:44;100532.78;;;5.56;100.00
36010;BME280;22076;52.182;5.404;2024-02-23T08:02:11;100534.47;;;5.57;100.00
36010;BME280;22076;52.182;5.404;2024-02-23T08:04:37;100530.94;;;5.58;100.00
36010;BME280;22076;52.182;5.404;2024-02-23T08:07:04;100519.88;;;5.54;100.00
36010;BME280;22076;52.182;5.404;2024-02-23T08:09:31;100514.22;;;5.44;100.00
36010;BME280;22076;52.182;5.404;2024-02-23T08:12:00;100508.94;;;5.48;100.00
36010;BME280;22076;52.182;5.404;2024-02-23T08:14:26;100494.28;;;5.46;100.00
36010;BME280;22076;52.182;5.404;2024-02-23T08:16:53;100485.66;;;5.46;100.00
36010;BME280;22076;52.182;5.404;2024-02-23T08:19:19;100481.91;;;5.53;100.00
36010;BME280;22076;52.182;5.404;2024-02-23T08:21:46;100464.16;;;5.44;100.00
36010;BME280;22076;52.182;5.404;2024-02-23T08:24:12;100471.94;;;5.65;100.00
36010;BME280;22076;52.182;5.404;2024-02-23T08:26:39;100464.44;;;5.58;100.00
36010;BME280;22076;52.182;5.404;2024-02-23T08:29:07;100457.94;;;5.69;100.00
36010;BME280;22076;52.182;5.404;2024-02-23T08:31:34;100426.66;;;5.53;100.00
36010;BME280;22076;52.182;5.404;2024-02-23T08:34:03;100444.28;;;5.65;100.00
36010;BME280;22076;52.182;5.404;2024-02-23T08:36:30;100442.59;;;5.64;100.00
36010;BME280;22076;52.182;5.404;2024-02-23T08:38:56;100420.50;;;5.55;100.00
36010;BME280;22076;52.182;5.404;2024-02-23T08:41:23;100428.59;;;5.68;100.00
36010;BME280;22076;52.182;5.404;2024-02-23T08:43:49;100414.16;;;5.62;100.00
36010;BME280;22076;52.182;5.404;2024-02-23T08:46:17;100417.78;;;5.79;100.00
36010;BME280;22076;52.182;5.404;2024-02-23T08:48:44;100405.91;;;5.73;100.00
36010;BME280;22076;52.182;5.404;2024-02-23T08:51:11;100394.13;;;5.66;100.00
36010;BME280;22076;52.182;5.404;2024-02-23T08:53:37;100391.41;;;5.69;100.00
36010;BME280;22076;52.182;5.404;2024-02-23T08:56:06;100402.41;;;5.74;100.00
36010;BME280;22076;52.182;5.404;2024-02-23T08:58:33;100383.94;;;5.61;100.00
36010;BME280;22076;52.182;5.404;2024-02-23T09:00:59;100401.84;;;5.68;100.00
36010;BME280;22076;52.182;5.404;2024-02-23T09:03:29;100393.00;;;5.72;100.00
36010;BME280;22076;52.182;5.404;2024-02-23T09:05:56;100396.66;;;5.68;100.00
36010;BME280;22076;52.182;5.404;2024-02-23T09:08:23;100397.44;;;5.70;100.00
36010;BME280;22076;52.182;5.404;2024-02-23T09:10:50;100399.09;;;5.71;100.00
36010;BME280;22076;52.182;5.404;2024-02-23T09:13:16;100398.59;;;5.62;100.00
36010;BME280;22076;52.182;5.404;2024-02-23T09:15:43;100406.13;;;5.69;100.00
36010;BME280;22076;52.182;5.404;2024-02-23T09:18:09;100422.44;;;5.71;100.00
36010;BME280;22076;52.182;5.404;2024-02-23T09:20:37;100422.31;;;5.74;100.00
36010;BME280;22076;52.182;5.404;2024-02-23T09:23:04;100421.28;;;5.78;100.00
36010;BME280;22076;52.182;5.404;2024-02-23T09:25:30;100430.19;;;5.71;100.00
36010;BME280;22076;52.182;5.404;2024-02-23T09:27:57;100428.31;;;5.74;100.00
36010;BME280;22076;52.182;5.404;2024-02-23T09:30:24;100436.56;;;5.84;100.00
36010;BME280;22076;52.182;5.404;2024-02-23T09:32:50;100438.59;;;5.77;100.00
36010;BME280;22076;52.182;5.404;2024-02-23T09:35:17;100450.22;;;5.88;100.00
36010;BME280;22076;52.182;5.404;2024-02-23T09:37:45;100454.44;;;5.90;100.00
36010;BME280;22076;52.182;5.404;2024-02-23T09:40:12;100453.09;;;5.82;100.00
36010;BME280;22076;52.182;5.404;2024-02-23T09:42:41;100454.56;;;5.87;100.00
36010;BME280;22076;52.182;5.404;2024-02-23T09:45:11;100465.16;;;5.83;100.00
36010;BME280;22076;52.182;5.404;2024-02-23T09:47:39;100463.47;;;5.82;100.00
36010;BME280;22076;52.182;5.404;2024-02-23T09:50:09;100461.84;;;5.79;100.00
36010;BME280;22076;52.182;5.404;2024-02-23T09:52:35;100486.41;;;5.91;100.00
36010;BME280;22076;52.182;5.404;2024-02-23T09:55:04;100489.72;;;5.94;100.00
36010;BME280;22076;52.182;5.404;2024-02-23T09:57:31;100483.81;;;5.91;100.00
36010;BME280;22076;52.182;5.404;2024-02-23T09:59:57;100489.09;;;5.88;100.00
36010;BME280;22076;52.182;5.404;2024-02-23T10:02:25;100497.50;;;5.94;100.00
36010;BME280;22076;52.182;5.404;2024-02-23T10:04:54;100504.78;;;6.07;100.00
36010;BME280;22076;52.182;5.404;2024-02-23T10:07:23;100491.69;;;6.10;100.00
36010;BME280;22076;52.182;5.404;2024-02-23T10:09:50;100500.44;;;6.07;100.00
36010;BME280;22076;52.182;5.404;2024-02-23T10:12:18;100499.09;;;6.18;100.00
36010;BME280;22076;52.182;5.404;2024-02-23T10:14:44;100501.69;;;6.18;100.00
36010;BME280;22076;52.182;5.404;2024-02-23T10:17:10;100484.25;;;6.02;100.00
36010;BME280;22076;52.182;5.404;2024-02-23T10:19:37;100483.91;;;6.10;100.00
36010;BME280;22076;52.182;5.404;2024-02-23T10:22:04;100475.66;;;6.21;100.00
36010;BME280;22076;52.182;5.404;2024-02-23T10:24:31;100479.94;;;6.22;100.00
36010;BME280;22076;52.182;5.404;2024-02-23T10:26:57;100462.53;;;6.24;100.00
36010;BME280;22076;52.182;5.404;2024-02-23T10:29:25;100470.19;;;6.27;100.00
36010;BME280;22076;52.182;5.404;2024-02-23T10:31:56;100469.16;;;6.31;100.00
36010;BME280;22076;52.182;5.404;2024-02-23T10:34:24;100465.50;;;6.35;100.00
36010;BME280;22076;52.182;5.404;2024-02-23T10:36:51;100465.56;;;6.34;100.00
36010;BME280;22076;52.182;5.404;2024-02-23T10:39:19;100453.28;;;6.18;100.00
36010;BME280;22076;52.182;5.404;2024-02-23T10:41:47;100474.81;;;6.39;100.00
36010;BME280;22076;52.182;5.404;2024-02-23T10:44:21;100466.78;;;6.45;100.00
36010;BME280;22076;52.182;5.404;2024-02-23T10:46:50;100472.38;;;6.36;100.00
36010;BME280;22076;52.182;5.404;2024-02-23T10:49:17;100448.13;;;6.37;100.00
36010;BME280;22076;52.182;5.404;2024-02-23T10:51:45;100467.81;;;6.41;100.00
36010;BME280;22076;52.182;5.404;2024-02-23T10:54:14;100467.75;;;6.43;100.00
36010;BME280;22076;52.182;5.404;2024-02-23T10:56:42;100438.44;;;6.41;100.00
36010;BME280;22076;52.182;5.404;2024-02-23T10:59:24;100453.66;;;6.49;100.00
36010;BME280;22076;52.182;5.404;2024-02-23T11:02:00;100460.44;;;6.51;100.00
36010;BME280;22076;52.182;5.404;2024-02-23T11:04:27;100463.56;;;6.59;100.00
36010;BME280;22076;52.182;5.404;2024-02-23T11:06:57;100464.88;;;6.68;100.00
36010;BME280;22076;52.182;5.404;2024-02-23T11:09:24;100467.91;;;6.59;100.00
36010;BME280;22076;52.182;5.404;2024-02-23T11:11:55;100459.75;;;6.67;100.00
36010;BME280;22076;52.182;5.404;2024-02-23T11:14:30;100467.91;;;6.59;100.00
36010;BME280;22076;52.182;5.404;2024-02-23T11:17:00;100446.31;;;6.58;100.00
36010;BME280;22076;52.182;5.404;2024-02-23T11:19:33;100436.94;;;6.73;100.00
36010;BME280;22076;52.182;5.404;2024-02-23T11:22:01;100419.91;;;6.68;100.00
36010;BME280;22076;52.182;5.404;2024-02-23T11:24:28;100416.97;;;6.75;100.00
36010;BME280;22076;52.182;5.404;2024-02-23T11:26:56;100404.25;;;6.69;100.00
36010;BME280;22076;52.182;5.404;2024-02-23T11:29:26;100408.44;;;6.91;100.00
36010;BME280;22076;52.182;5.404;2024-02-23T11:31:53;100387.03;;;6.86;100.00
36010;BME280;22076;52.182;5.404;2024-02-23T11:34:23;100371.59;;;6.83;100.00
36010;BME280;22076;52.182;5.404;2024-02-23T11:36:51;100361.91;;;6.86;100.00
36010;BME280;22076;52.182;5.404;2024-02-23T11:39:19;100349.84;;;6.85;100.00
36010;BME280;22076;52.182;5.404;2024-02-23T11:41:48;100351.69;;;6.83;100.00
36010;BME280;22076;52.182;5.404;2024-02-23T11:44:15;100344.13;;;6.96;100.00
36010;BME280;22076;52.182;5.404;2024-02-23T11:46:43;100341.00;;;7.07;100.00
36010;BME280;22076;52.182;5.404;2024-02-23T11:49:10;100364.44;;;7.23;100.00
36010;BME280;22076;52.182;5.404;2024-02-23T11:51:38;100363.53;;;7.41;100.00
36010;BME280;22076;52.182;5.404;2024-02-23T11:54:04;100354.28;;;7.36;100.00
36010;BME280;22076;52.182;5.404;2024-02-23T11:56:31;100344.38;;;7.44;100.00
36010;BME280;22076;52.182;5.404;2024-02-23T11:58:58;100308.84;;;7.27;100.00
36010;BME280;22076;52.182;5.404;2024-02-23T12:01:24;100290.31;;;7.33;100.00
36010;BME280;22076;52.182;5.404;2024-02-23T12:03:51;100263.59;;;7.31;100.00
36010;BME280;22076;52.182;5.404;2024-02-23T12:06:17;100245.53;;;7.28;100.00
36010;BME280;22076;52.182;5.404;2024-02-23T12:08:46;100257.13;;;7.38;100.00
36010;BME280;22076;52.182;5.404;2024-02-23T12:11:13;100236.81;;;7.29;100.00
36010;BME280;22076;52.182;5.404;2024-02-23T12:13:40;100217.47;;;7.35;100.00
36010;BME280;22076;52.182;5.404;2024-02-23T12:16:08;100199.72;;;7.27;100.00
36010;BME280;22076;52.182;5.404;2024-02-23T12:18:35;100188.94;;;7.17;100.00
36010;BME280;22076;52.182;5.404;2024-02-23T12:21:04;100161.47;;;7.29;100.00
36010;BME280;22076;52.182;5.404;2024-02-23T12:23:39;100191.56;;;7.33;100.00
36010;BME280;22076;52.182;5.404;2024-02-23T12:26:07;100195.53;;;7.40;100.00
36010;BME280;22076;52.182;5.404;2024-02-23T12:28:34;100209.91;;;7.64;100.00
36010;BME280;22076;52.182;5.404;2024-02-23T12:31:01;100194.44;;;7.60;100.00
36010;BME280;22076;52.182;5.404;2024-02-23T12:33:28;100184.06;;;7.60;100.00
36010;BME280;22076;52.182;5.404;2024-02-23T12:35:56;100183.13;;;7.61;100.00
36010;BME280;22076;52.182;5.404;2024-02-23T12:38:22;100193.38;;;7.81;100.00
36010;BME280;22076;52.182;5.404;2024-02-23T12:40:49;100181.63;;;7.73;100.00
36010;BME280;22076;52.182;5.404;2024-02-23T12:43:17;100172.91;;;7.74;100.00
36010;BME280;22076;52.182;5.404;2024-02-23T12:45:46;100163.50;;;7.72;100.00
36010;BME280;22076;52.182;5.404;2024-02-23T12:48:14;100143.72;;;7.69;100.00
36010;BME280;22076;52.182;5.404;2024-02-23T12:50:41;100121.72;;;7.75;100.00